Time;durP1;ratioP1;P1;durP2;ratioP2;P2;SDS_P1;SDS_P2;PMS_P1;PMS_P2;Temp;Humidity;BMP_temperature;BMP_pressure;BME280_temperature;BME280_humidity;BME280_pressure;Samples;Min_cycle;Max_cycle;Signal;HPM_P1;HPM_P2
2021/07/26 00:01:24;;;;;;;;;;;;;;;;;;5040067;28;19925;-93
2021/07/26 00:03:52;;;;;;;;;;;;;;;;;;5041362;28;19936;-91
2021/07/26 00:06:20;;;;;;;;;;;;;;;;;;5038504;28;19939;-92
2021/07/26 00:08:49;;;;;;;;;;;;;;;;;;5038708;28;19929;-92
2021/07/26 00:11:18;;;;;;;;;;;;;;;;;;5035370;28;19925;-92
2021/07/26 00:13:48;;;;;;;;;;;;;;;;;;5032865;28;20303;-92
2021/07/26 00:16:16;;;;;;;;;;;;;;;;;;5036119;28;19940;-93
2021/07/26 00:18:45;;;;;;;;;;;;;;;;;;5036144;28;19925;-93
2021/07/26 00:21:13;;;;;;;;;;;;;;;;;;5035747;28;19924;-93
2021/07/26 00:23:41;;;;;;;;;;;;;;;;;;5035414;28;20034;-91
2021/07/26 00:26:09;;;;;;;;;;;;;;;;;;5036388;28;19929;-91
2021/07/26 00:28:39;;;;;;;;;;;;;;;;;;5036241;28;19926;-92
2021/07/26 00:31:07;;;;;;;;;;;;;;;;;;5035939;28;19932;-93
2021/07/26 00:34:06;;;;;;;;;;;;;;;;;;5036703;28;19932;-93
2021/07/26 00:36:34;;;;;;;;;;;;;;;;;;5032602;28;19933;-91
2021/07/26 00:39:03;;;;;;;;;;;;;;;;;;5040126;28;19936;-92
2021/07/26 00:41:31;;;;;;;;;;;;;;;;;;5036775;28;19933;-93
2021/07/26 00:44:01;;;;;;;;;;;;;;;;;;5033050;28;19936;-92
2021/07/26 00:46:29;;;;;;;;;;;;;;;;;;5029433;28;19940;-92
2021/07/26 00:48:57;;;;;;;;;;;;;;;;;;5047170;28;19924;-93
2021/07/26 00:51:25;;;;;;;;;;;;;;;;;;5034801;28;19925;-92
2021/07/26 00:53:53;;;;;;;;;;;;;;;;;;5040099;28;20393;-92
2021/07/26 00:56:21;;;;;;;;;;;;;;;;;;5027888;28;19948;-93
2021/07/26 00:58:50;;;;;;;;;;;;;;;;;;5046351;28;19936;-93
2021/07/26 01:01:19;;;;;;;;;;;;;;;;;;5043555;28;19924;-93
2021/07/26 01:03:50;;;;;;;;;;;;;;;;;;5050773;28;20384;-92
2021/07/26 01:06:19;;;;;;;;;;;;;;;;;;5032414;28;20304;-93
2021/07/26 01:08:48;;;;;;;;;;;;;;;;;;5037828;28;19925;-93
2021/07/26 01:11:16;;;;;;;;;;;;;;;;;;5033030;28;19932;-92
2021/07/26 01:13:44;;;;;;;;;;;;;;;;;;5049879;28;19925;-93
2021/07/26 01:16:14;;;;;;;;;;;;;;;;;;5051340;28;19929;-91
2021/07/26 01:18:44;;;;;;;;;;;;;;;;;;5047032;28;19925;-93
2021/07/26 01:21:14;;;;;;;;;;;;;;;;;;5065874;28;19925;-92
2021/07/26 01:23:43;;;;;;;;;;;;;;;;;;5050983;28;19931;-93
2021/07/26 01:26:13;;;;;;;;;;;;;;;;;;5050356;28;19931;-93
2021/07/26 01:28:43;;;;;;;;;;;;;;;;;;5052201;28;19931;-92
2021/07/26 01:31:11;;;;;;;;;;;;;;;;;;5052604;28;19931;-92
2021/07/26 01:33:40;;;;;;;;;;;;;;;;;;5050169;28;19932;-92
2021/07/26 01:36:09;;;;;;;;;;;;;;;;;;5058770;28;19929;-92
2021/07/26 01:38:38;;;;;;;;;;;;;;;;;;5049693;28;20331;-93
2021/07/26 01:41:08;;;;;;;;;;;;;;;;;;5048744;28;19924;-91
2021/07/26 01:43:39;;;;;;;;;;;;;;;;;;5046849;28;19928;-92
2021/07/26 01:46:10;;;;;;;;;;;;;;;;;;5041885;28;19925;-91
2021/07/26 01:48:39;;;;;;;;;;;;;;;;;;5052101;28;19936;-92
2021/07/26 01:51:10;;;;;;;;;;;;;;;;;;5050483;28;19924;-92
2021/07/26 01:53:42;;;;;;;;;;;;;;;;;;5067597;28;19924;-91
2021/07/26 01:56:13;;;;;;;;;;;;;;;;;;5050232;28;19951;-93
2021/07/26 01:58:42;;;;;;;;;;;;;;;;;;5070064;28;19932;-92
2021/07/26 02:01:10;;;;;;;;;;;;;;;;;;5044669;28;19933;-93
2021/07/26 02:03:39;;;;;;;;;;;;;;;;;;5070686;28;19932;-91
2021/07/26 02:06:07;;;;;;;;;;;;;;;;;;5056559;28;19925;-92
2021/07/26 02:08:36;;;;;;;;;;;;;;;;;;5070819;28;19932;-92
2021/07/26 02:11:06;;;;;;;;;;;;;;;;;;5054297;28;20384;-94
2021/07/26 02:13:35;;;;;;;;;;;;;;;;;;5053190;28;19932;-93
2021/07/26 02:16:09;;;;;;;;;;;;;;;;;;5053182;28;19925;-93
2021/07/26 02:18:38;;;;;;;;;;;;;;;;;;5070282;28;19925;-93
2021/07/26 02:21:06;;;;;;;;;;;;;;;;;;5052538;28;19924;-93
2021/07/26 02:23:35;;;;;;;;;;;;;;;;;;5070689;28;19951;-92
2021/07/26 02:26:03;;;;;;;;;;;;;;;;;;5052082;28;19924;-91
2021/07/26 02:28:33;;;;;;;;;;;;;;;;;;5042101;28;19929;-92
2021/07/26 02:31:01;;;;;;;;;;;;;;;;;;5051188;28;19946;-91
2021/07/26 02:33:29;;;;;;;;;;;;;;;;;;5048767;28;19925;-92
2021/07/26 02:35:58;;;;;;;;;;;;;;;;;;5071144;28;19915;-92
2021/07/26 02:38:26;;;;;;;;;;;;;;;;;;5050701;28;19935;-92
2021/07/26 02:40:54;;;;;;;;;;;;;;;;;;5044702;28;19924;-92
2021/07/26 02:43:23;;;;;;;;;;;;;;;;;;5047610;28;19925;-91
2021/07/26 02:45:53;;;;;;;;;;;;;;;;;;5029799;28;20303;-92
2021/07/26 02:48:21;;;;;;;;;;;;;;;;;;5047094;28;19935;-91
2021/07/26 02:50:50;;;;;;;;;;;;;;;;;;5045738;28;19936;-91
2021/07/26 02:53:18;;;;;;;;;;;;;;;;;;5050607;28;19932;-92
2021/07/26 02:55:46;;;;;;;;;;;;;;;;;;5043620;28;19925;-91
2021/07/26 02:58:15;;;;;;;;;;;;;;;;;;5037157;28;19932;-91
2021/07/26 03:00:46;;;;;;;;;;;;;;;;;;5047078;28;19931;-91
2021/07/26 03:03:16;;;;;;;;;;;;;;;;;;5045031;28;19929;-91
2021/07/26 03:05:45;;;;;;;;;;;;;;;;;;5049140;28;19932;-91
2021/07/26 03:08:13;;;;;;;;;;;;;;;;;;5032933;28;19932;-90
2021/07/26 03:10:41;;;;;;;;;;;;;;;;;;5047435;28;20423;-91
2021/07/26 03:13:10;;;;;;;;;;;;;;;;;;5050104;28;19975;-90
2021/07/26 03:15:38;;;;;;;;;;;;;;;;;;5045157;28;19925;-91
2021/07/26 03:18:06;;;;;;;;;;;;;;;;;;5045500;28;19928;-91
2021/07/26 03:20:36;;;;;;;;;;;;;;;;;;5047118;28;20396;-91
2021/07/26 03:23:07;;;;;;;;;;;;;;;;;;5047458;28;20414;-91
2021/07/26 03:25:39;;;;;;;;;;;;;;;;;;5044963;28;19931;-91
2021/07/26 03:28:07;;;;;;;;;;;;;;;;;;5034020;28;19924;-93
2021/07/26 03:30:36;;;;;;;;;;;;;;;;;;5043314;28;19925;-93
2021/07/26 03:33:04;;;;;;;;;;;;;;;;;;5047858;28;19924;-91
2021/07/26 03:35:32;;;;;;;;;;;;;;;;;;5045394;28;19936;-91
2021/07/26 03:38:02;;;;;;;;;;;;;;;;;;5052311;28;19925;-92
2021/07/26 03:40:31;;;;;;;;;;;;;;;;;;5045230;28;20416;-91
2021/07/26 03:43:01;;;;;;;;;;;;;;;;;;5034106;28;19935;-91
2021/07/26 03:45:29;;;;;;;;;;;;;;;;;;5048163;28;19935;-93
2021/07/26 03:47:59;;;;;;;;;;;;;;;;;;5037637;28;19926;-92
2021/07/26 03:50:28;;;;;;;;;;;;;;;;;;5060444;28;20296;-92
2021/07/26 03:52:56;;;;;;;;;;;;;;;;;;5038258;28;20312;-92
2021/07/26 03:55:27;;;;;;;;;;;;;;;;;;5051880;28;20404;-92
2021/07/26 03:57:55;;;;;;;;;;;;;;;;;;5037596;28;19931;-93
2021/07/26 04:00:24;;;;;;;;;;;;;;;;;;5047332;28;19933;-92
2021/07/26 04:02:58;;;;;;;;;;;;;;;;;;5048212;28;19929;-92
2021/07/26 04:05:30;;;;;;;;;;;;;;;;;;5056915;28;19924;-91
2021/07/26 04:08:02;;;;;;;;;;;;;;;;;;5043598;28;19925;-92
2021/07/26 04:10:32;;;;;;;;;;;;;;;;;;5048099;28;19948;-93
2021/07/26 04:13:00;;;;;;;;;;;;;;;;;;5038802;28;19925;-93
2021/07/26 04:15:29;;;;;;;;;;;;;;;;;;5043411;28;19929;-92
2021/07/26 04:17:57;;;;;;;;;;;;;;;;;;5044017;28;20307;-91
2021/07/26 04:20:25;;;;;;;;;;;;;;;;;;5057079;28;19924;-92
2021/07/26 04:22:53;;;;;;;;;;;;;;;;;;5039353;28;19929;-92
2021/07/26 04:25:22;;;;;;;;;;;;;;;;;;5027235;28;20389;-91
2021/07/26 04:27:51;;;;;;;;;;;;;;;;;;5034682;28;20336;-92
2021/07/26 04:30:38;;;;;;;;;;;;;;;;;;5042172;28;19925;-91
2021/07/26 04:33:06;;;;;;;;;;;;;;;;;;5039908;28;20225;-92
2021/07/26 04:35:34;;;;;;;;;;;;;;;;;;5050802;28;19925;-91
2021/07/26 04:38:02;;;;;;;;;;;;;;;;;;5035413;28;19940;-92
2021/07/26 04:40:30;;;;;;;;;;;;;;;;;;5040776;28;19925;-92
2021/07/26 04:43:00;;;;;;;;;;;;;;;;;;5043250;28;19925;-91
2021/07/26 04:45:28;;;;;;;;;;;;;;;;;;5047257;28;19924;-92
2021/07/26 04:47:56;;;;;;;;;;;;;;;;;;5040896;28;20222;-90
2021/07/26 04:50:24;;;;;;;;;;;;;;;;;;5055432;28;20377;-91
2021/07/26 04:52:53;;;;;;;;;;;;;;;;;;5040044;28;19932;-92
2021/07/26 04:55:21;;;;;;;;;;;;;;;;;;5038722;28;19924;-92
2021/07/26 04:58:09;;;;;;;;;;;;;;;;;;5062820;28;19936;-92
2021/07/26 05:00:37;;;;;;;;;;;;;;;;;;5041440;28;20311;-90
2021/07/26 05:03:07;;;;;;;;;;;;;;;;;;5041668;28;20388;-92
2021/07/26 05:05:35;;;;;;;;;;;;;;;;;;5040917;28;19925;-92
2021/07/26 05:08:03;;;;;;;;;;;;;;;;;;5055611;28;19925;-92
2021/07/26 05:10:31;;;;;;;;;;;;;;;;;;5042610;28;19925;-91
2021/07/26 05:13:00;;;;;;;;;;;;;;;;;;5046111;28;19931;-92
2021/07/26 05:15:29;;;;;;;;;;;;;;;;;;5037372;28;19933;-90
2021/07/26 05:17:57;;;;;;;;;;;;;;;;;;5037417;28;20339;-91
2021/07/26 05:20:25;;;;;;;;;;;;;;;;;;5049658;28;19924;-93
2021/07/26 05:22:54;;;;;;;;;;;;;;;;;;5033931;28;19932;-92
2021/07/26 05:25:23;;;;;;;;;;;;;;;;;;5042157;28;19924;-91
2021/07/26 05:27:51;;;;;;;;;;;;;;;;;;5037663;28;19925;-94
2021/07/26 05:30:22;;;;;;;;;;;;;;;;;;5040326;28;19932;-92
2021/07/26 05:32:53;;;;;;;;;;;;;;;;;;5043323;28;19908;-93
2021/07/26 05:35:21;;;;;;;;;;;;;;;;;;5079134;28;19931;-92
2021/07/26 05:37:49;;;;;;;;;;;;;;;;;;5070650;28;19931;-92
2021/07/26 05:40:17;;;;;;;;;;;;;;;;;;5066589;28;19925;-92
2021/07/26 05:42:46;;;;;;;;;;;;;;;;;;5060581;28;19909;-91
2021/07/26 05:45:14;;;;;;;;;;;;;;;;;;5058206;28;19925;-92
2021/07/26 05:47:42;;;;;;;;;;;;;;;;;;5051761;28;19935;-91
2021/07/26 05:50:12;;;;;;;;;;;;;;;;;;5057874;28;19923;-92
2021/07/26 05:52:40;;;;;;;;;;;;;;;;;;5077621;28;19933;-90
2021/07/26 05:55:08;;;;;;;;;;;;;;;;;;5062348;28;19928;-92
2021/07/26 05:57:43;;;;;;;;;;;;;;;;;;5054355;28;19924;-94
2021/07/26 06:00:14;;;;;;;;;;;;;;;;;;5041298;28;19932;-91
2021/07/26 06:02:42;;;;;;;;;;;;;;;;;;5044894;28;19929;-92
2021/07/26 06:05:12;;;;;;;;;;;;;;;;;;5031075;28;20300;-92
2021/07/26 06:07:40;;;;;;;;;;;;;;;;;;5039688;28;19948;-91
2021/07/26 06:10:10;;;;;;;;;;;;;;;;;;5042559;28;19925;-91
2021/07/26 06:12:38;;;;;;;;;;;;;;;;;;5040102;28;19929;-91
2021/07/26 06:15:06;;;;;;;;;;;;;;;;;;5044303;28;19925;-92
2021/07/26 06:17:34;;;;;;;;;;;;;;;;;;5058586;28;19925;-92
2021/07/26 06:20:03;;;;;;;;;;;;;;;;;;5046054;28;19947;-92
2021/07/26 06:22:33;;;;;;;;;;;;;;;;;;5048519;28;20293;-91
2021/07/26 06:25:01;;;;;;;;;;;;;;;;;;5044251;28;19925;-91
2021/07/26 06:27:29;;;;;;;;;;;;;;;;;;5044176;28;19936;-91
2021/07/26 06:29:57;;;;;;;;;;;;;;;;;;5040865;28;19925;-92
2021/07/26 06:32:25;;;;;;;;;;;;;;;;;;5064542;28;20392;-91
2021/07/26 06:34:54;;;;;;;;;;;;;;;;;;5060916;28;19925;-93
2021/07/26 06:37:22;;;;;;;;;;;;;;;;;;5059733;28;19932;-91
2021/07/26 06:39:52;;;;;;;;;;;;;;;;;;5042283;28;19925;-92
2021/07/26 06:42:20;;;;;;;;;;;;;;;;;;5056201;28;19932;-90
2021/07/26 06:44:49;;;;;;;;;;;;;;;;;;5029275;28;19925;-92
2021/07/26 06:47:17;;;;;;;;;;;;;;;;;;5040495;28;19932;-91
2021/07/26 06:49:45;;;;;;;;;;;;;;;;;;5031191;28;19936;-91
2021/07/26 06:52:13;;;;;;;;;;;;;;;;;;5037819;28;19936;-91
2021/07/26 06:54:41;;;;;;;;;;;;;;;;;;5032543;28;19932;-91
2021/07/26 06:57:11;;;;;;;;;;;;;;;;;;5037989;28;19932;-91
2021/07/26 06:59:39;;;;;;;;;;;;;;;;;;5029959;28;19932;-90
2021/07/26 07:02:07;;;;;;;;;;;;;;;;;;5036128;28;20308;-90
2021/07/26 07:04:35;;;;;;;;;;;;;;;;;;5048635;28;19932;-91
2021/07/26 07:07:07;;;;;;;;;;;;;;;;;;5040886;28;19929;-90
2021/07/26 07:09:36;;;;;;;;;;;;;;;;;;5039011;28;19929;-90
2021/07/26 07:12:04;;;;;;;;;;;;;;;;;;5037907;28;19932;-90
2021/07/26 07:14:33;;;;;;;;;;;;;;;;;;5052779;28;19956;-91
2021/07/26 07:17:02;;;;;;;;;;;;;;;;;;5038267;28;19933;-91
2021/07/26 07:19:30;;;;;;;;;;;;;;;;;;5048788;28;19925;-91
2021/07/26 07:21:58;;;;;;;;;;;;;;;;;;5053433;28;20328;-91
2021/07/26 07:24:26;;;;;;;;;;;;;;;;;;5054115;28;19936;-91
2021/07/26 07:26:55;;;;;;;;;;;;;;;;;;5058962;28;19932;-90
2021/07/26 07:29:23;;;;;;;;;;;;;;;;;;5042925;28;19925;-90
2021/07/26 07:31:52;;;;;;;;;;;;;;;;;;5059893;28;19925;-91
2021/07/26 07:34:21;;;;;;;;;;;;;;;;;;5052065;28;19928;-90
2021/07/26 07:36:49;;;;;;;;;;;;;;;;;;5043460;28;20380;-91
2021/07/26 07:39:17;;;;;;;;;;;;;;;;;;5051862;28;19925;-91
2021/07/26 07:41:45;;;;;;;;;;;;;;;;;;5041946;28;19932;-89
2021/07/26 07:44:13;;;;;;;;;;;;;;;;;;5058041;28;19925;-91
2021/07/26 07:46:42;;;;;;;;;;;;;;;;;;5040752;28;19924;-91
2021/07/26 07:49:11;;;;;;;;;;;;;;;;;;5061034;28;19924;-92
2021/07/26 07:51:40;;;;;;;;;;;;;;;;;;5040531;28;19925;-91
2021/07/26 07:54:10;;;;;;;;;;;;;;;;;;5044110;28;19932;-90
2021/07/26 07:56:38;;;;;;;;;;;;;;;;;;5031175;28;20320;-92
2021/07/26 07:59:07;;;;;;;;;;;;;;;;;;5043531;28;19924;-91
2021/07/26 08:01:35;;;;;;;;;;;;;;;;;;5041850;28;19925;-92
2021/07/26 08:04:04;;;;;;;;;;;;;;;;;;5041184;28;19924;-90
2021/07/26 08:06:34;;;;;;;;;;;;;;;;;;5044004;28;19932;-91
2021/07/26 08:09:03;;;;;;;;;;;;;;;;;;5033622;28;19924;-91
2021/07/26 08:11:31;;;;;;;;;;;;;;;;;;5042845;28;19925;-89
2021/07/26 08:13:59;;;;;;;;;;;;;;;;;;5032786;28;19932;-89
2021/07/26 08:16:28;;;;;;;;;;;;;;;;;;5057218;28;19929;-90
2021/07/26 08:19:00;;;;;;;;;;;;;;;;;;5032155;28;19925;-90
2021/07/26 08:21:29;;;;;;;;;;;;;;;;;;5028731;28;19932;-91
2021/07/26 08:23:59;;;;;;;;;;;;;;;;;;5035631;28;19925;-91
2021/07/26 08:26:29;;;;;;;;;;;;;;;;;;5053656;28;19928;-89
2021/07/26 08:28:57;;;;;;;;;;;;;;;;;;5034187;28;19925;-90
2021/07/26 08:31:25;;;;;;;;;;;;;;;;;;5036218;28;19932;-91
2021/07/26 08:33:53;;;;;;;;;;;;;;;;;;5035138;28;19936;-88
2021/07/26 08:36:22;;;;;;;;;;;;;;;;;;5041811;28;19925;-90
2021/07/26 08:38:50;;;;;;;;;;;;;;;;;;5048501;28;19932;-90
2021/07/26 08:41:20;;;;;;;;;;;;;;;;;;5047330;28;19929;-90
2021/07/26 08:43:48;;;;;;;;;;;;;;;;;;5041205;28;20011;-91
2021/07/26 08:46:17;;;;;;;;;;;;;;;;;;5039149;28;19932;-90
2021/07/26 08:48:46;;;;;;;;;;;;;;;;;;5054871;28;19924;-90
2021/07/26 08:51:16;;;;;;;;;;;;;;;;;;5056954;28;19931;-89
2021/07/26 08:53:45;;;;;;;;;;;;;;;;;;5038922;28;19988;-90
2021/07/26 08:56:15;;;;;;;;;;;;;;;;;;5034754;28;19927;-91
2021/07/26 08:58:44;;;;;;;;;;;;;;;;;;5032335;28;19925;-89
2021/07/26 09:01:12;;;;;;;;;;;;;;;;;;5033858;28;19943;-89
2021/07/26 09:03:41;;;;;;;;;;;;;;;;;;5054605;28;19925;-90
2021/07/26 09:06:10;;;;;;;;;;;;;;;;;;5060316;28;19925;-91
2021/07/26 09:08:38;;;;;;;;;;;;;;;;;;5055478;28;19925;-89
2021/07/26 09:11:07;;;;;;;;;;;;;;;;;;5047149;28;19924;-89
2021/07/26 09:13:35;;;;;;;;;;;;;;;;;;5051946;28;19932;-90
2021/07/26 09:16:15;;;;;;;;;;;;;;;;;;5042374;28;20397;-89
2021/07/26 09:18:44;;;;;;;;;;;;;;;;;;5029613;28;19925;-89
2021/07/26 09:21:13;;;;;;;;;;;;;;;;;;5028821;28;19948;-89
2021/07/26 09:23:56;;;;;;;;;;;;;;;;;;5043493;28;19929;-89
2021/07/26 09:26:27;;;;;;;;;;;;;;;;;;5053201;28;19928;-89
2021/07/26 09:28:55;;;;;;;;;;;;;;;;;;5039937;28;19928;-88
2021/07/26 09:31:25;;;;;;;;;;;;;;;;;;5035717;28;19925;-87
2021/07/26 09:34:05;;;;;;;;;;;;;;;;;;5055422;28;19925;-90
2021/07/26 09:36:36;;;;;;;;;;;;;;;;;;5035613;28;19931;-89
2021/07/26 09:39:04;;;;;;;;;;;;;;;;;;5037468;28;20418;-90
2021/07/26 09:41:43;;;;;;;;;;;;;;;;;;5054742;28;19929;-90
2021/07/26 09:44:11;;;;;;;;;;;;;;;;;;5024597;28;19925;-88
2021/07/26 09:46:43;;;;;;;;;;;;;;;;;;5018894;28;19925;-89
2021/07/26 09:49:12;;;;;;;;;;;;;;;;;;5048650;28;19925;-88
2021/07/26 09:51:40;;;;;;;;;;;;;;;;;;5036674;28;19932;-88
2021/07/26 09:54:09;;;;;;;;;;;;;;;;;;5048629;28;20403;-88
2021/07/26 09:56:37;;;;;;;;;;;;;;;;;;5038652;28;20348;-89
2021/07/26 09:59:06;;;;;;;;;;;;;;;;;;5020662;28;19925;-89
2021/07/26 10:01:34;;;;;;;;;;;;;;;;;;5034105;28;19940;-89
2021/07/26 10:04:04;;;;;;;;;;;;;;;;;;5020822;28;19929;-91
2021/07/26 10:06:32;;;;;;;;;;;;;;;;;;5035296;28;19925;-89
2021/07/26 10:09:01;;;;;;;;;;;;;;;;;;5050506;28;20568;-88
2021/07/26 10:11:29;;;;;;;;;;;;;;;;;;5051891;28;19925;-89
2021/07/26 10:13:57;;;;;;;;;;;;;;;;;;5034540;28;19925;-89
2021/07/26 10:16:25;;;;;;;;;;;;;;;;;;5035766;28;20404;-89
2021/07/26 10:18:53;;;;;;;;;;;;;;;;;;5041172;28;19925;-89
2021/07/26 10:21:25;;;;;;;;;;;;;;;;;;5033897;28;20300;-89
2021/07/26 10:23:57;;;;;;;;;;;;;;;;;;5024998;28;19932;-89
2021/07/26 10:26:34;;;;;;;;;;;;;;;;;;5037473;28;20385;-89
2021/07/26 10:29:02;;;;;;;;;;;;;;;;;;5034183;28;19925;-88
2021/07/26 10:31:35;;;;;;;;;;;;;;;;;;5035052;28;19925;-88
2021/07/26 10:34:04;;;;;;;;;;;;;;;;;;5045780;28;19925;-89
2021/07/26 10:36:52;;;;;;;;;;;;;;;;;;5054616;28;19947;-89
2021/07/26 10:39:21;;;;;;;;;;;;;;;;;;5032587;28;19929;-89
2021/07/26 10:42:04;;;;;;;;;;;;;;;;;;5035071;28;19925;-89
2021/07/26 10:44:46;;;;;;;;;;;;;;;;;;5037816;28;20301;-89
2021/07/26 10:47:18;;;;;;;;;;;;;;;;;;5028493;28;20309;-89
2021/07/26 10:50:05;;;;;;;;;;;;;;;;;;5037652;28;19933;-89
2021/07/26 10:52:50;;;;;;;;;;;;;;;;;;5047064;28;19932;-89
2021/07/26 10:55:37;;;;;;;;;;;;;;;;;;5052753;28;19929;-89
2021/07/26 10:58:05;;;;;;;;;;;;;;;;;;5045709;28;19925;-90
2021/07/26 11:00:33;;;;;;;;;;;;;;;;;;5045913;28;19933;-89
2021/07/26 11:03:02;;;;;;;;;;;;;;;;;;5046940;28;20410;-89
2021/07/26 11:05:34;;;;;;;;;;;;;;;;;;5036497;28;19932;-89
2021/07/26 11:08:26;;;;;;;;;;;;;;;;;;5027149;28;19925;-89
2021/07/26 11:10:57;;;;;;;;;;;;;;;;;;5015910;28;19929;-90
2021/07/26 11:13:47;;;;;;;;;;;;;;;;;;5033877;28;19925;-90
2021/07/26 11:16:15;;;;;;;;;;;;;;;;;;5011482;28;19925;-89
2021/07/26 11:18:44;;;;;;;;;;;;;;;;;;5036932;28;19925;-89
2021/07/26 11:21:16;;;;;;;;;;;;;;;;;;5053450;28;19924;-89
2021/07/26 11:23:46;;;;;;;;;;;;;;;;;;5036969;28;20409;-89
2021/07/26 11:26:16;;;;;;;;;;;;;;;;;;5033026;28;19936;-86
2021/07/26 11:28:44;;;;;;;;;;;;;;;;;;5025150;28;20384;-89
2021/07/26 11:31:19;;;;;;;;;;;;;;;;;;5051320;28;19925;-90
2021/07/26 11:33:47;;;;;;;;;;;;;;;;;;5066083;28;19913;-91
2021/07/26 11:36:15;;;;;;;;;;;;;;;;;;5060324;28;19912;-91
2021/07/26 11:38:59;;;;;;;;;;;;;;;;;;5050236;28;20000;-91
2021/07/26 11:41:29;;;;;;;;;;;;;;;;;;5060551;28;19919;-91
2021/07/26 11:43:58;;;;;;;;;;;;;;;;;;5059542;28;19923;-91
2021/07/26 11:46:27;;;;;;;;;;;;;;;;;;5044662;28;19919;-91
2021/07/26 11:48:56;;;;;;;;;;;;;;;;;;5035146;28;19932;-90
2021/07/26 11:51:25;;;;;;;;;;;;;;;;;;5036676;28;19925;-89
2021/07/26 11:53:56;;;;;;;;;;;;;;;;;;5035467;28;19995;-89
2021/07/26 11:56:28;;;;;;;;;;;;;;;;;;5035365;28;19929;-90
2021/07/26 11:59:15;;;;;;;;;;;;;;;;;;5033806;28;20047;-90
2021/07/26 12:01:46;;;;;;;;;;;;;;;;;;5034959;28;20308;-89
2021/07/26 12:04:15;;;;;;;;;;;;;;;;;;5034850;28;20238;-89
2021/07/26 12:06:50;;;;;;;;;;;;;;;;;;5034192;28;19925;-89
2021/07/26 12:09:18;;;;;;;;;;;;;;;;;;5026520;28;19925;-88
2021/07/26 12:11:46;;;;;;;;;;;;;;;;;;5035212;28;19925;-89
2021/07/26 12:14:24;;;;;;;;;;;;;;;;;;5035947;28;20281;-88
2021/07/26 12:17:04;;;;;;;;;;;;;;;;;;5023077;28;19940;-89
2021/07/26 12:19:32;;;;;;;;;;;;;;;;;;5022369;28;19924;-90
2021/07/26 12:22:16;;;;;;;;;;;;;;;;;;5033936;28;19929;-90
2021/07/26 12:24:54;;;;;;;;;;;;;;;;;;5034153;28;19925;-88
2021/07/26 12:27:27;;;;;;;;;;;;;;;;;;5022216;28;19925;-88
2021/07/26 12:29:56;;;;;;;;;;;;;;;;;;5034967;28;19935;-88
2021/07/26 12:32:25;;;;;;;;;;;;;;;;;;5031463;28;19925;-87
2021/07/26 12:35:10;;;;;;;;;;;;;;;;;;5033440;28;19925;-88
2021/07/26 12:37:38;;;;;;;;;;;;;;;;;;5030504;28;20396;-88
2021/07/26 12:40:13;;;;;;;;;;;;;;;;;;5044492;28;19925;-88
2021/07/26 12:42:42;;;;;;;;;;;;;;;;;;5022874;28;19940;-88
2021/07/26 12:45:22;;;;;;;;;;;;;;;;;;5033008;28;20403;-86
2021/07/26 12:47:53;;;;;;;;;;;;;;;;;;5036417;28;19976;-88
2021/07/26 12:50:21;;;;;;;;;;;;;;;;;;5050145;28;19940;-88
2021/07/26 12:52:49;;;;;;;;;;;;;;;;;;5030265;28;19929;-88
2021/07/26 12:55:17;;;;;;;;;;;;;;;;;;5047260;28;20176;-88
2021/07/26 12:57:46;;;;;;;;;;;;;;;;;;5039404;28;19925;-88
2021/07/26 13:00:20;;;;;;;;;;;;;;;;;;5033487;28;19932;-89
2021/07/26 13:02:48;;;;;;;;;;;;;;;;;;5045513;28;20388;-90
2021/07/26 13:05:18;;;;;;;;;;;;;;;;;;5030211;28;20299;-89
2021/07/26 13:07:46;;;;;;;;;;;;;;;;;;5035606;28;19929;-89
2021/07/26 13:10:14;;;;;;;;;;;;;;;;;;5034743;28;19925;-90
2021/07/26 13:12:42;;;;;;;;;;;;;;;;;;5036392;28;19925;-88
2021/07/26 13:15:10;;;;;;;;;;;;;;;;;;5034663;28;20124;-90
2021/07/26 13:17:38;;;;;;;;;;;;;;;;;;5032226;28;19936;-89
2021/07/26 13:20:08;;;;;;;;;;;;;;;;;;5047161;28;19941;-90
2021/07/26 13:22:38;;;;;;;;;;;;;;;;;;5038519;28;19925;-90
2021/07/26 13:25:07;;;;;;;;;;;;;;;;;;5034340;28;19948;-90
2021/07/26 13:27:35;;;;;;;;;;;;;;;;;;5031320;28;20384;-90
2021/07/26 13:30:14;;;;;;;;;;;;;;;;;;5025152;28;19929;-90
2021/07/26 13:32:42;;;;;;;;;;;;;;;;;;5049790;28;19925;-90
2021/07/26 13:35:10;;;;;;;;;;;;;;;;;;5020607;28;19925;-90
2021/07/26 13:37:40;;;;;;;;;;;;;;;;;;5023289;28;19925;-90
2021/07/26 13:40:09;;;;;;;;;;;;;;;;;;5044347;28;19932;-90
2021/07/26 13:42:38;;;;;;;;;;;;;;;;;;5030861;28;19924;-90
2021/07/26 13:45:06;;;;;;;;;;;;;;;;;;5035141;28;19925;-90
2021/07/26 13:47:35;;;;;;;;;;;;;;;;;;5055030;28;20392;-90
2021/07/26 13:50:03;;;;;;;;;;;;;;;;;;5031980;28;19913;-90
2021/07/26 13:52:32;;;;;;;;;;;;;;;;;;5032055;28;19932;-90
2021/07/26 13:55:03;;;;;;;;;;;;;;;;;;5034834;28;19933;-89
2021/07/26 13:57:32;;;;;;;;;;;;;;;;;;5034665;28;19925;-90
2021/07/26 14:00:00;;;;;;;;;;;;;;;;;;5031066;28;20328;-89
2021/07/26 14:02:28;;;;;;;;;;;;;;;;;;5035308;28;19924;-89
2021/07/26 14:04:57;;;;;;;;;;;;;;;;;;5054007;28;19925;-88
2021/07/26 14:07:25;;;;;;;;;;;;;;;;;;5052636;28;19932;-88
2021/07/26 14:09:54;;;;;;;;;;;;;;;;;;5047867;28;19925;-88
2021/07/26 14:12:23;;;;;;;;;;;;;;;;;;5032446;28;19935;-88
2021/07/26 14:14:54;;;;;;;;;;;;;;;;;;5060677;28;19929;-89
2021/07/26 14:17:22;;;;;;;;;;;;;;;;;;5052719;28;19933;-89
2021/07/26 14:20:02;;;;;;;;;;;;;;;;;;5044231;28;19958;-88
2021/07/26 14:22:31;;;;;;;;;;;;;;;;;;5035121;28;19932;-88
2021/07/26 14:24:59;;;;;;;;;;;;;;;;;;5052523;28;20268;-89
2021/07/26 14:27:29;;;;;;;;;;;;;;;;;;5036481;28;19929;-89
2021/07/26 14:29:57;;;;;;;;;;;;;;;;;;5045988;28;19932;-89
2021/07/26 14:32:25;;;;;;;;;;;;;;;;;;5037468;28;19929;-89
2021/07/26 14:34:54;;;;;;;;;;;;;;;;;;5027121;28;19932;-89
2021/07/26 14:37:22;;;;;;;;;;;;;;;;;;5047856;28;19936;-88
2021/07/26 14:39:50;;;;;;;;;;;;;;;;;;5029888;28;20389;-88
2021/07/26 14:42:18;;;;;;;;;;;;;;;;;;5049080;28;19933;-88
2021/07/26 14:44:47;;;;;;;;;;;;;;;;;;5031414;28;19925;-90
2021/07/26 14:47:19;;;;;;;;;;;;;;;;;;5044446;28;19925;-87
2021/07/26 14:49:47;;;;;;;;;;;;;;;;;;5032670;28;20396;-87
2021/07/26 14:52:15;;;;;;;;;;;;;;;;;;5029861;28;19940;-89
2021/07/26 14:54:43;;;;;;;;;;;;;;;;;;5042326;28;19925;-89
2021/07/26 14:57:11;;;;;;;;;;;;;;;;;;5033757;28;19937;-90
2021/07/26 14:59:39;;;;;;;;;;;;;;;;;;5049141;28;19924;-89
2021/07/26 15:02:09;;;;;;;;;;;;;;;;;;5027873;28;19947;-88
2021/07/26 15:04:37;;;;;;;;;;;;;;;;;;5061212;28;19931;-88
2021/07/26 15:07:05;;;;;;;;;;;;;;;;;;5057097;28;19936;-90
2021/07/26 15:09:33;;;;;;;;;;;;;;;;;;5031356;28;19932;-87
2021/07/26 15:12:02;;;;;;;;;;;;;;;;;;5037659;28;19925;-91
2021/07/26 15:14:30;;;;;;;;;;;;;;;;;;5035946;28;19932;-91
2021/07/26 15:16:58;;;;;;;;;;;;;;;;;;5038027;28;19925;-91
2021/07/26 15:19:28;;;;;;;;;;;;;;;;;;5031556;28;19940;-91
2021/07/26 15:21:56;;;;;;;;;;;;;;;;;;5049971;28;19936;-89
2021/07/26 15:24:24;;;;;;;;;;;;;;;;;;5035103;28;19932;-89
2021/07/26 15:26:52;;;;;;;;;;;;;;;;;;5034216;28;20384;-89
2021/07/26 15:29:20;;;;;;;;;;;;;;;;;;5058892;28;19929;-89
2021/07/26 15:31:48;;;;;;;;;;;;;;;;;;5039294;28;19928;-89
2021/07/26 15:34:17;;;;;;;;;;;;;;;;;;5035519;28;20404;-89
2021/07/26 15:36:46;;;;;;;;;;;;;;;;;;5031737;28;20396;-89
2021/07/26 15:39:14;;;;;;;;;;;;;;;;;;5036182;28;19932;-89
2021/07/26 15:41:47;;;;;;;;;;;;;;;;;;5029166;28;19929;-89
2021/07/26 15:44:16;;;;;;;;;;;;;;;;;;5035764;28;19925;-89
2021/07/26 15:46:44;;;;;;;;;;;;;;;;;;5035810;28;19925;-89
2021/07/26 15:49:13;;;;;;;;;;;;;;;;;;5034882;28;19925;-90
2021/07/26 15:51:41;;;;;;;;;;;;;;;;;;5043232;28;19983;-90
2021/07/26 15:54:10;;;;;;;;;;;;;;;;;;5030929;28;19925;-89
2021/07/26 15:56:40;;;;;;;;;;;;;;;;;;5021425;28;19932;-89
2021/07/26 15:59:09;;;;;;;;;;;;;;;;;;5033970;28;19933;-89
2021/07/26 16:01:37;;;;;;;;;;;;;;;;;;5038059;28;19929;-89
2021/07/26 16:04:06;;;;;;;;;;;;;;;;;;5043918;28;20511;-88
2021/07/26 16:06:37;;;;;;;;;;;;;;;;;;5029382;28;20404;-89
2021/07/26 16:09:06;;;;;;;;;;;;;;;;;;5029173;28;19925;-89
2021/07/26 16:11:37;;;;;;;;;;;;;;;;;;5040752;28;20087;-89
2021/07/26 16:14:05;;;;;;;;;;;;;;;;;;5052818;28;20339;-89
2021/07/26 16:16:34;;;;;;;;;;;;;;;;;;5032899;28;19925;-89
2021/07/26 16:19:02;;;;;;;;;;;;;;;;;;5048847;28;19928;-89
2021/07/26 16:21:30;;;;;;;;;;;;;;;;;;5034767;28;19940;-88
2021/07/26 16:23:59;;;;;;;;;;;;;;;;;;5026658;28;19925;-89
2021/07/26 16:26:27;;;;;;;;;;;;;;;;;;5055442;28;19928;-90
2021/07/26 16:28:57;;;;;;;;;;;;;;;;;;5036906;28;19913;-90
2021/07/26 16:31:25;;;;;;;;;;;;;;;;;;5060213;28;19929;-89
2021/07/26 16:33:54;;;;;;;;;;;;;;;;;;5055277;28;19932;-89
2021/07/26 16:36:22;;;;;;;;;;;;;;;;;;5036828;28;19924;-89
2021/07/26 16:38:50;;;;;;;;;;;;;;;;;;5032283;28;19932;-90
2021/07/26 16:41:18;;;;;;;;;;;;;;;;;;5034090;28;19929;-89
2021/07/26 16:43:46;;;;;;;;;;;;;;;;;;5024683;28;19925;-88
2021/07/26 16:46:16;;;;;;;;;;;;;;;;;;5022086;28;19932;-89
2021/07/26 16:48:44;;;;;;;;;;;;;;;;;;5033291;28;20380;-88
2021/07/26 16:51:12;;;;;;;;;;;;;;;;;;5026528;28;19926;-89
2021/07/26 16:53:40;;;;;;;;;;;;;;;;;;5050447;28;19925;-89
2021/07/26 16:56:09;;;;;;;;;;;;;;;;;;5030822;28;19924;-88
2021/07/26 16:58:37;;;;;;;;;;;;;;;;;;5031551;28;20399;-88
2021/07/26 17:01:05;;;;;;;;;;;;;;;;;;5027440;28;19924;-89
2021/07/26 17:03:34;;;;;;;;;;;;;;;;;;5033545;28;19925;-90